createdAt,value
2023-04-21T00:00:46.017Z,63366.40
2023-04-21T00:01:48.002Z,63374.72
2023-04-21T00:02:51.599Z,63388.30
2023-04-21T00:03:53.875Z,63385.25
2023-04-21T00:04:56.253Z,63381.54
2023-04-21T00:06:00.771Z,63388.54
2023-04-21T00:07:02.719Z,63396.93
2023-04-21T00:08:04.577Z,63391.39
2023-04-21T00:09:07.882Z,63400.58
2023-04-21T00:10:11.090Z,63391.26
2023-04-21T00:11:12.999Z,63383.07
2023-04-21T00:12:15.035Z,63388.71
2023-04-21T00:13:16.870Z,63393.88
2023-04-21T00:14:19.069Z,63386.09
2023-04-21T00:15:20.917Z,63386.09
2023-04-21T00:16:23.049Z,63387.87
2023-04-21T00:17:25.974Z,63399.48
2023-04-21T00:18:29.061Z,63401.66
2023-04-21T00:19:31.151Z,63392.91
2023-04-21T00:20:33.408Z,63392.36
2023-04-21T00:21:35.904Z,63387.43
2023-04-21T00:22:37.788Z,63399.48
2023-04-21T00:23:39.641Z,63392.91
2023-04-21T00:24:41.646Z,63400.34
2023-04-21T00:25:43.519Z,63395.11
2023-04-21T00:26:45.443Z,63395.65
2023-04-21T00:27:48.306Z,63395.11
2023-04-21T00:28:50.269Z,63399.91
2023-04-21T00:29:52.146Z,63398.14
2023-04-21T00:30:54.201Z,63391.82
2023-04-21T00:31:56.308Z,63390.96
2023-04-21T00:32:58.553Z,63392.91
2023-04-21T00:34:00.574Z,63391.26
2023-04-21T00:35:03.938Z,63387.43
2023-04-21T00:36:06.348Z,63383.48
2023-04-21T00:37:08.258Z,63386.36
2023-04-21T00:38:10.413Z,63395.11
2023-04-21T00:39:13.471Z,63394.98
2023-04-21T00:40:15.788Z,63379.22
2023-04-21T00:41:17.876Z,63381.96
2023-04-21T00:42:19.888Z,63370.46
2023-04-21T00:43:21.907Z,63377.47
2023-04-21T00:44:23.863Z,63378.14
2023-04-21T00:45:26.168Z,63348.03
2023-04-21T00:46:28.957Z,63372.11
2023-04-21T00:47:31.409Z,63380.08
2023-04-21T00:48:33.568Z,63365.30
2023-04-21T00:49:36.084Z,63364.86
2023-04-21T00:50:38.684Z,63371.03
2023-04-21T00:51:40.856Z,63371.57
2023-04-21T00:52:44.050Z,63375.39
2023-04-21T00:53:46.859Z,63372.11
2023-04-21T00:54:49.421Z,63381.29
2023-04-21T00:55:54.264Z,63379.22
2023-04-21T00:56:56.693Z,63377.17
2023-04-21T00:57:59.590Z,63385.79
2023-04-21T00:59:02.383Z,63397.06
2023-04-21T01:00:05.863Z,63395.78
2023-04-21T01:01:08.075Z,63392.80
2023-04-21T01:02:10.701Z,63391.59
2023-04-21T01:03:13.386Z,63378.01
2023-04-21T01:04:15.451Z,63347.92
2023-04-21T01:05:17.519Z,63368.15
2023-04-21T01:06:19.800Z,63362.81
2023-04-21T01:07:21.862Z,63362.68
2023-04-21T01:08:23.721Z,63361.17
2023-04-21T01:09:26.647Z,63344.37
2023-04-21T01:10:31.754Z,63356.37
2023-04-21T01:11:33.719Z,63357.21
2023-04-21T01:12:42.905Z,63345.30
2023-04-21T01:13:44.868Z,63347.18
2023-04-21T01:14:46.716Z,63344.50
2023-04-21T01:15:49.058Z,63342.99
2023-04-21T01:16:51.133Z,63352.41
2023-04-21T01:17:53.197Z,63368.28
2023-04-21T01:18:55.387Z,63356.78
2023-04-21T01:20:00.220Z,63362.81
2023-04-21T01:21:03.471Z,63337.09
2023-04-21T01:22:10.083Z,63339.27
2023-04-21T01:23:11.965Z,63357.21
2023-04-21T01:24:14.105Z,63355.14
2023-04-21T01:25:15.973Z,63343.66
2023-04-21T01:27:29.671Z,63342.02
2023-04-21T01:28:31.546Z,63334.78
2023-04-21T01:29:33.885Z,63355.57
2023-04-21T01:30:36.047Z,63351.31
2023-04-21T01:31:38.035Z,63357.21
2023-04-21T01:32:40.132Z,63364.86
2023-04-21T01:33:42.069Z,63347.49
2023-04-21T01:34:44.601Z,63363.22
2023-04-21T01:35:48.322Z,63344.74
2023-04-21T01:36:50.562Z,63334.89
2023-04-21T01:37:52.419Z,63354.60
2023-04-21T01:38:54.289Z,63345.71
2023-04-21T01:39:59.345Z,63329.42
2023-04-21T01:41:01.460Z,63329.72
2023-04-21T01:42:05.888Z,63342.32
2023-04-21T01:43:08.998Z,63332.46
2023-04-21T01:44:13.935Z,63331.60
2023-04-21T01:45:15.906Z,63351.18
2023-04-21T01:46:19.910Z,63334.89
2023-04-21T01:47:23.488Z,63335.75
2023-04-21T01:48:25.490Z,63337.50
2023-04-21T01:49:27.393Z,63333.25
2023-04-21T01:50:29.660Z,63335.99
2023-04-21T01:51:31.527Z,63315.74
2023-04-21T01:52:33.609Z,63338.73
2023-04-21T01:53:35.428Z,63343.40
2023-04-21T01:54:38.794Z,63314.66
2023-04-21T01:55:40.948Z,63313.69
2023-04-21T01:56:44.098Z,63315.20
2023-04-21T01:57:46.076Z,63335.86
2023-04-21T01:58:47.935Z,63332.04
2023-04-21T01:59:49.971Z,63329.18
2023-04-21T02:00:51.932Z,63311.38
2023-04-21T02:01:53.956Z,63311.79
2023-04-21T02:02:57.202Z,63322.07
2023-04-21T02:03:59.751Z,63314.10
2023-04-21T02:05:02.121Z,63305.35
2023-04-21T02:06:05.880Z,63318.91
2023-04-21T02:07:07.865Z,63329.42
2023-04-21T02:08:09.718Z,63327.00
2023-04-21T02:09:11.841Z,63314.10
2023-04-21T02:10:16.122Z,63314.53
2023-04-21T02:11:18.102Z,63308.39
2023-04-21T02:12:20.051Z,63311.92
2023-04-21T02:13:21.930Z,63302.62
2023-04-21T02:14:24.994Z,63304.01
2023-04-21T02:15:27.151Z,63302.49
2023-04-21T02:16:32.540Z,63304.01
2023-04-21T02:17:35.177Z,63285.11
2023-04-21T02:18:37.358Z,63292.64
2023-04-21T02:19:39.988Z,63310.14
2023-04-21T02:20:42.072Z,63294.29
2023-04-21T02:21:44.009Z,63298.78
2023-04-21T02:22:45.857Z,63303.84
2023-04-21T02:23:48.272Z,63306.21
2023-04-21T02:24:50.147Z,63306.32
2023-04-21T02:25:52.010Z,63309.47
2023-04-21T02:26:54.088Z,63320.43
2023-04-21T02:27:57.019Z,63313.99
2023-04-21T02:28:59.257Z,63314.40
2023-04-21T02:30:01.317Z,63292.77
2023-04-21T02:31:03.826Z,63298.54
2023-04-21T02:33:09.737Z,63281.28
2023-04-21T02:34:11.951Z,63306.21
2023-04-21T02:35:13.824Z,63304.68
2023-04-21T02:36:17.271Z,63280.74
2023-04-21T02:37:20.251Z,63283.36
2023-04-21T02:38:22.216Z,63287.61
2023-04-21T02:39:24.683Z,63276.12
2023-04-21T02:40:26.661Z,63296.36
2023-04-21T02:41:29.787Z,63277.46
2023-04-21T02:42:34.586Z,63270.76
2023-04-21T02:43:37.704Z,63257.89
2023-04-21T02:44:39.715Z,63264.09
2023-04-21T02:45:43.256Z,63263.55
2023-04-21T02:46:45.447Z,63260.50
2023-04-21T02:47:47.404Z,63258.19
2023-04-21T02:48:49.481Z,63258.73
2023-04-21T02:49:51.462Z,63243.01
2023-04-21T02:50:54.647Z,63258.62
2023-04-21T02:51:57.507Z,63257.22
2023-04-21T02:52:59.420Z,63248.34
2023-04-21T02:54:01.301Z,63242.88
2023-04-21T02:55:03.574Z,63242.45
2023-04-21T02:56:07.370Z,63249.31
2023-04-21T02:57:09.232Z,63258.62
2023-04-21T02:58:11.372Z,63262.01
2023-04-21T02:59:13.438Z,63243.01
2023-04-21T03:00:15.850Z,63251.52
2023-04-21T03:01:17.859Z,63247.67
2023-04-21T03:02:20.246Z,63252.30
2023-04-21T03:03:24.636Z,63253.40
2023-04-21T03:04:27.009Z,63244.95
2023-04-21T03:05:31.437Z,63239.73
2023-04-21T03:06:33.821Z,63247.37
2023-04-21T03:07:35.780Z,63246.59
2023-04-21T03:08:37.856Z,63241.91
2023-04-21T03:09:40.693Z,63248.10
2023-04-21T03:10:42.733Z,63246.03
2023-04-21T03:11:44.619Z,63247.37
2023-04-21T03:12:46.567Z,63244.09
2023-04-21T03:13:48.523Z,63239.06
2023-04-21T03:14:51.722Z,63232.62
2023-04-21T03:15:54.209Z,63236.74
2023-04-21T03:16:56.285Z,63229.88
2023-04-21T03:17:58.594Z,63238.50
2023-04-21T03:19:00.692Z,63228.11
2023-04-21T03:20:03.042Z,63248.91
2023-04-21T03:21:06.318Z,63235.35
2023-04-21T03:22:09.620Z,63241.11
2023-04-21T03:23:13.811Z,63253.14
2023-04-21T03:24:15.904Z,63259.16
2023-04-21T03:25:17.912Z,63256.42
2023-04-21T03:26:19.873Z,63243.55
2023-04-21T03:27:21.700Z,63246.29
2023-04-21T03:28:23.873Z,63245.19
2023-04-21T03:29:25.952Z,63253.27
2023-04-21T03:30:28.301Z,63246.29
2023-04-21T03:31:30.214Z,63257.22
2023-04-21T03:32:32.282Z,63263.55
2023-04-21T03:33:35.110Z,63250.95
2023-04-21T03:34:37.026Z,63249.87
2023-04-21T03:35:38.892Z,63233.17
2023-04-21T03:36:40.851Z,63259.83
2023-04-21T03:37:42.700Z,63251.09
2023-04-21T03:38:44.569Z,63258.86
2023-04-21T03:39:46.447Z,63256.55
2023-04-21T03:40:48.949Z,63261.05
2023-04-21T03:41:51.195Z,63243.01
2023-04-21T03:42:53.111Z,63241.11
2023-04-21T03:43:54.994Z,63247.37
2023-04-21T03:45:03.742Z,63248.34
2023-04-21T03:46:06.331Z,63238.39
2023-04-21T03:47:08.397Z,63250.66
2023-04-21T03:48:10.390Z,63261.59
2023-04-21T03:49:12.306Z,63249.02
2023-04-21T03:50:16.624Z,63248.91
2023-04-21T03:51:18.492Z,63243.85
2023-04-21T03:52:20.344Z,63240.27
2023-04-21T03:53:23.321Z,63244.95
2023-04-21T03:54:25.417Z,63243.31
2023-04-21T03:55:27.334Z,63245.06
2023-04-21T03:56:29.443Z,63233.71
2023-04-21T03:57:31.413Z,63249.31
2023-04-21T03:58:33.681Z,63256.12
2023-04-21T03:59:36.680Z,63234.92
2023-04-21T04:00:38.960Z,63253.27
2023-04-21T04:01:41.231Z,63250.66
2023-04-21T04:02:43.243Z,63241.67
2023-04-21T04:03:45.375Z,63248.91
2023-04-21T04:04:47.618Z,63252.30
2023-04-21T04:05:49.728Z,63265.73
2023-04-21T04:06:51.704Z,63253.27
2023-04-21T04:07:53.567Z,63265.73
2023-04-21T04:08:55.524Z,63269.25
2023-04-21T04:09:57.409Z,63269.68
2023-04-21T04:10:59.494Z,63252.16
2023-04-21T04:12:01.356Z,63263.11
2023-04-21T04:13:03.294Z,63267.23
2023-04-21T04:14:05.174Z,63268.15
2023-04-21T04:15:08.194Z,63259.83
2023-04-21T04:16:10.634Z,63276.12
2023-04-21T04:17:14.822Z,63267.61
2023-04-21T04:18:16.740Z,63266.51
2023-04-21T04:19:18.890Z,63266.40
2023-04-21T04:20:24.060Z,63265.97
2023-04-21T04:21:26.754Z,63285.96
2023-04-21T04:22:28.613Z,63282.93
2023-04-21T04:23:30.480Z,63284.03
2023-04-21T04:24:33.375Z,63284.03
2023-04-21T04:25:35.256Z,63272.54
2023-04-21T04:26:37.207Z,63284.03
2023-04-21T04:27:39.024Z,63292.10
2023-04-21T04:28:40.932Z,63310.57
2023-04-21T04:29:42.808Z,63311.68
2023-04-21T04:30:44.874Z,63309.06
2023-04-21T04:31:46.802Z,63317.92
2023-04-21T04:32:48.926Z,63334.11
2023-04-21T04:33:55.550Z,63325.46
2023-04-21T04:34:57.765Z,63327.67
2023-04-21T04:35:59.953Z,63334.21
2023-04-21T04:37:02.241Z,63334.35
2023-04-21T04:38:04.344Z,63333.13
2023-04-21T04:39:08.312Z,63355.70
2023-04-21T04:40:11.396Z,63348.46
2023-04-21T04:41:13.306Z,63358.32
2023-04-21T04:42:15.166Z,63353.50
2023-04-21T04:43:17.142Z,63363.11
2023-04-21T04:44:19.660Z,63363.79
2023-04-21T04:45:21.766Z,63365.97
2023-04-21T04:46:23.860Z,63373.21
2023-04-21T04:47:25.856Z,63374.72
2023-04-21T04:48:28.726Z,63379.11
2023-04-21T04:49:30.595Z,63387.07
2023-04-21T04:50:32.739Z,63362.81
2023-04-21T04:51:34.849Z,63376.91
2023-04-21T04:52:37.992Z,63374.29
2023-04-21T04:53:40.017Z,63385.01
2023-04-21T04:54:42.184Z,63385.01
2023-04-21T04:55:44.049Z,63380.86
2023-04-21T04:56:46.084Z,63369.38
2023-04-21T04:57:48.002Z,63372.97
2023-04-21T04:58:50.491Z,63358.98
2023-04-21T04:59:56.080Z,63367.31
2023-04-21T05:00:58.310Z,63371.03
2023-04-21T05:02:00.263Z,63387.98
2023-04-21T05:03:02.673Z,63400.45
2023-04-21T05:04:05.056Z,63386.36
2023-04-21T05:05:08.330Z,63384.28
2023-04-21T05:06:10.769Z,63379.11
2023-04-21T05:07:12.922Z,63392.91
2023-04-21T05:08:18.133Z,63400.88
2023-04-21T05:09:22.246Z,63392.50
2023-04-21T05:10:24.262Z,63398.40
2023-04-21T05:11:26.840Z,63392.67
2023-04-21T05:12:30.495Z,63399.48
2023-04-21T05:13:32.416Z,63399.48
2023-04-21T05:14:36.620Z,63410.88
2023-04-21T05:15:38.520Z,63416.78
2023-04-21T05:16:43.017Z,63407.84
2023-04-21T05:17:45.285Z,63403.89
2023-04-21T05:18:47.328Z,63403.46
2023-04-21T05:19:49.171Z,63400.88
2023-04-21T05:20:51.276Z,63400.17
2023-04-21T05:21:58.506Z,63402.25
2023-04-21T05:23:00.426Z,63411.54
2023-04-21T05:24:03.605Z,63413.08
2023-04-21T05:25:07.992Z,63417.45
2023-04-21T05:26:10.459Z,63410.46
2023-04-21T05:27:12.490Z,63412.11
2023-04-21T05:28:14.486Z,63420.74
2023-04-21T05:29:16.418Z,63418.66
2023-04-21T05:30:18.845Z,63417.02
2023-04-21T05:31:22.885Z,63426.10
2023-04-21T05:32:25.281Z,63430.71
2023-04-21T05:33:27.273Z,63438.26
2023-04-21T05:34:30.847Z,63447.58
2023-04-21T05:35:34.195Z,63453.36
2023-04-21T05:36:39.907Z,63457.98
2023-04-21T05:37:41.796Z,63442.78
2023-04-21T05:38:43.752Z,63459.32
2023-04-21T05:39:46.085Z,63465.23
2023-04-21T05:40:54.855Z,63469.06
2023-04-21T05:41:56.917Z,63476.48
2023-04-21T05:42:58.902Z,63484.94
2023-04-21T05:44:01.269Z,63477.29
2023-04-21T05:45:04.804Z,63461.64
2023-04-21T05:46:10.262Z,63473.99
2023-04-21T05:47:12.751Z,63478.37
2023-04-21T05:48:14.650Z,63490.00
2023-04-21T05:49:16.574Z,63501.93
2023-04-21T05:50:18.852Z,63511.26
2023-04-21T05:51:21.910Z,63527.15
2023-04-21T05:52:23.867Z,63535.61
2023-04-21T05:53:25.891Z,63539.75
2023-04-21T05:54:27.982Z,63558.16
2023-04-21T05:55:29.964Z,63551.27
2023-04-21T05:56:32.017Z,63551.93
2023-04-21T05:57:33.860Z,63563.33
2023-04-21T05:58:36.449Z,63555.10
2023-04-21T05:59:38.623Z,63562.89
2023-04-21T06:00:40.760Z,63567.16
2023-04-21T06:01:44.324Z,63562.89
2023-04-21T06:02:46.423Z,63553.14
2023-04-21T06:03:49.451Z,63554.87
2023-04-21T06:04:51.782Z,63546.46
2023-04-21T06:05:55.095Z,63555.10
2023-04-21T06:06:57.557Z,63558.52
2023-04-21T06:07:59.535Z,63568.37
2023-04-21T06:09:01.393Z,63557.29
2023-04-21T06:10:04.468Z,63555.66
2023-04-21T06:11:06.642Z,63560.27
2023-04-21T06:12:08.628Z,63557.18
2023-04-21T06:13:10.584Z,63562.12
2023-04-21T06:14:12.437Z,63550.96
2023-04-21T06:15:14.337Z,63566.08
2023-04-21T06:16:16.330Z,63547.43
2023-04-21T06:17:19.505Z,63547.97
2023-04-21T06:18:21.952Z,63546.46
2023-04-21T06:19:24.051Z,63538.77
2023-04-21T06:20:26.038Z,63562.89
2023-04-21T06:21:27.937Z,63564.12
2023-04-21T06:22:29.891Z,63573.51
2023-04-21T06:23:31.932Z,63578.81
2023-04-21T06:24:33.903Z,63575.52
2023-04-21T06:25:35.901Z,63587.99
2023-04-21T06:26:38.059Z,63597.20
2023-04-21T06:27:39.934Z,63590.75
2023-04-21T06:28:41.893Z,63598.41
2023-04-21T06:29:44.264Z,63614.12
2023-04-21T06:30:46.347Z,63614.23
2023-04-21T06:31:48.413Z,63609.41
2023-04-21T06:32:50.465Z,63602.96
2023-04-21T06:33:52.486Z,63600.06
2023-04-21T06:34:54.352Z,63601.60
2023-04-21T06:35:57.622Z,63598.98
2023-04-21T06:36:59.710Z,63610.62
2023-04-21T06:38:01.577Z,63632.34
2023-04-21T06:39:03.561Z,63641.79
2023-04-21T06:40:07.543Z,63640.57
2023-04-21T06:41:09.631Z,63635.63
2023-04-21T06:42:11.518Z,63660.00
2023-04-21T06:43:13.490Z,63661.78
2023-04-21T06:44:15.370Z,63659.88
2023-04-21T06:45:19.089Z,63676.89
2023-04-21T06:46:21.358Z,63676.89
2023-04-21T06:47:23.492Z,63672.51
2023-04-21T06:48:25.713Z,63667.03
2023-04-21T06:49:27.573Z,63667.26
2023-04-21T06:50:29.952Z,63662.86
2023-04-21T06:51:32.081Z,63679.33
2023-04-21T06:52:33.945Z,63669.22
2023-04-21T06:53:35.806Z,63674.93
2023-04-21T06:54:37.648Z,63692.93
2023-04-21T06:55:39.503Z,63694.58
2023-04-21T06:56:41.488Z,63694.03
2023-04-21T06:57:44.254Z,63692.82
2023-04-21T06:58:49.031Z,63695.01
2023-04-21T06:59:51.747Z,63686.23
2023-04-21T07:00:53.876Z,63703.12
2023-04-21T07:01:56.133Z,63700.18
2023-04-21T07:02:58.417Z,63690.74
2023-04-21T07:04:00.733Z,63690.61
2023-04-21T07:05:03.324Z,63693.59
2023-04-21T07:06:05.668Z,63695.12
2023-04-21T07:07:07.688Z,63698.85
2023-04-21T07:08:10.260Z,63684.02
2023-04-21T07:09:12.352Z,63708.51
2023-04-21T07:10:14.637Z,63705.00
2023-04-21T07:11:17.746Z,63720.37
2023-04-21T07:12:19.600Z,63726.84
2023-04-21T07:13:21.553Z,63732.89
2023-04-21T07:14:24.308Z,63716.85
2023-04-21T07:15:26.422Z,63720.81
2023-04-21T07:16:32.136Z,63727.95
2023-04-21T07:17:35.465Z,63718.18
2023-04-21T07:18:39.407Z,63725.76
2023-04-21T07:19:41.346Z,63723.13
2023-04-21T07:20:44.332Z,63724.11
2023-04-21T07:21:46.323Z,63736.19
2023-04-21T07:22:48.283Z,63725.20
2023-04-21T07:23:50.252Z,63733.56
2023-04-21T07:24:52.147Z,63721.48
2023-04-21T07:25:54.387Z,63732.89
2023-04-21T07:26:56.375Z,63740.57
2023-04-21T07:27:58.396Z,63747.39
2023-04-21T07:29:00.432Z,63730.80
2023-04-21T07:30:06.557Z,63730.93
2023-04-21T07:31:08.614Z,63760.79
2023-04-21T07:32:10.766Z,63762.23
2023-04-21T07:33:13.511Z,63794.43
2023-04-21T07:34:15.550Z,63802.78
2023-04-21T07:35:17.826Z,63772.43
2023-04-21T07:36:21.096Z,63798.93
2023-04-21T07:37:24.907Z,63815.30
2023-04-21T07:38:27.127Z,63832.88
2023-04-21T07:39:28.991Z,63832.88
2023-04-21T07:40:31.267Z,63846.74
2023-04-21T07:41:33.382Z,63859.94
2023-04-21T07:42:35.488Z,63859.28
2023-04-21T07:43:38.746Z,63860.16
2023-04-21T07:44:42.649Z,63860.16
2023-04-21T07:45:49.080Z,63870.38
2023-04-21T07:46:51.266Z,63857.18
2023-04-21T07:47:53.221Z,63838.50
2023-04-21T07:48:57.308Z,63837.51
2023-04-21T07:49:59.433Z,63841.25
2023-04-21T07:51:01.545Z,63840.14
2023-04-21T07:52:04.630Z,63840.14
2023-04-21T07:53:06.483Z,63826.95
2023-04-21T07:54:08.370Z,63830.91
2023-04-21T07:55:10.234Z,63815.85
2023-04-21T07:56:12.812Z,63803.98
2023-04-21T07:57:14.769Z,63818.29
2023-04-21T07:58:16.949Z,63826.95
2023-04-21T07:59:19.221Z,63818.72
2023-04-21T08:00:21.585Z,63811.02
2023-04-21T08:01:23.667Z,63822.57
2023-04-21T08:02:26.780Z,63826.95
2023-04-21T08:03:29.215Z,63820.35
2023-04-21T08:04:31.451Z,63834.85
2023-04-21T08:05:36.674Z,63836.30
2023-04-21T08:06:38.924Z,63849.82
2023-04-21T08:07:40.872Z,63843.00
2023-04-21T08:08:42.910Z,63843.57
2023-04-21T08:09:44.959Z,63815.30
2023-04-21T08:10:47.942Z,63796.18
2023-04-21T08:11:51.846Z,63798.39
2023-04-21T08:12:54.083Z,63802.67
2023-04-21T08:13:56.190Z,63823.65
2023-04-21T08:14:58.311Z,63822.67
2023-04-21T08:16:00.224Z,63838.05
2023-04-21T08:17:02.289Z,63848.94
2023-04-21T08:18:04.612Z,63850.04
2023-04-21T08:19:07.966Z,63840.81
2023-04-21T08:20:11.357Z,63854.01
2023-04-21T08:21:13.243Z,63880.83
2023-04-21T08:22:15.512Z,63869.40
2023-04-21T08:23:19.465Z,63878.61
2023-04-21T08:24:22.277Z,63873.56
2023-04-21T08:25:24.873Z,63855.09
2023-04-21T08:26:27.787Z,63860.93
2023-04-21T08:27:29.797Z,63857.06
2023-04-21T08:28:31.669Z,63851.79
2023-04-21T08:29:33.632Z,63850.48
2023-04-21T08:30:35.825Z,63841.25
2023-04-21T08:31:38.717Z,63822.57
2023-04-21T08:32:40.785Z,63835.10
2023-04-21T08:33:57.903Z,63830.91
2023-04-21T08:34:49.064Z,63858.17
2023-04-21T08:36:02.320Z,63863.66
2023-04-21T08:36:54.942Z,63864.87
2023-04-21T08:37:56.839Z,63840.27
2023-04-21T08:38:59.239Z,63836.85
2023-04-21T08:40:01.715Z,63832.02
2023-04-21T08:41:06.706Z,63851.13
2023-04-21T08:42:09.142Z,63875.34
2023-04-21T08:43:11.578Z,63879.28
2023-04-21T08:44:13.535Z,63884.79
2023-04-21T08:45:15.786Z,63873.24
2023-04-21T08:46:18.994Z,63876.64
2023-04-21T08:47:24.397Z,63862.23
2023-04-21T08:48:29.092Z,63850.04
2023-04-21T08:49:33.632Z,63830.91
2023-04-21T08:50:38.184Z,63836.97
2023-04-21T08:51:40.464Z,63844.97
2023-04-21T08:52:42.359Z,63826.53
2023-04-21T08:53:44.228Z,63843.32
2023-04-21T08:54:46.720Z,63842.90
2023-04-21T08:56:03.169Z,63838.05
2023-04-21T08:57:04.557Z,63814.32
2023-04-21T08:58:05.569Z,63821.90
2023-04-21T08:59:07.544Z,63846.84
2023-04-21T09:00:11.664Z,63864.77
2023-04-21T09:01:13.795Z,63883.02
2023-04-21T09:02:21.473Z,63869.82
2023-04-21T09:03:26.401Z,63880.38
2023-04-21T09:04:30.761Z,63878.83
2023-04-21T09:05:34.575Z,63865.98
2023-04-21T09:06:40.877Z,63872.03
2023-04-21T09:07:42.951Z,63875.88
2023-04-21T09:08:53.636Z,63885.66
2023-04-21T09:09:57.477Z,63875.98
2023-04-21T09:11:02.688Z,63874.77
2023-04-21T09:12:06.483Z,63870.93
2023-04-21T09:13:09.663Z,63869.16
2023-04-21T09:14:11.609Z,63880.16
2023-04-21T09:15:14.704Z,63868.17
2023-04-21T09:16:21.151Z,63870.93
2023-04-21T09:17:31.101Z,63880.16
2023-04-21T09:18:33.169Z,63850.48
2023-04-21T09:19:35.825Z,63861.35
2023-04-21T09:20:37.904Z,63875.34
2023-04-21T09:21:43.493Z,63877.53
2023-04-21T09:22:49.302Z,63833.67
2023-04-21T09:23:53.159Z,63847.95
2023-04-21T09:24:58.722Z,63864.77
2023-04-21T09:26:02.753Z,63860.36
2023-04-21T09:27:05.907Z,63860.80
2023-04-21T09:28:09.378Z,63862.57
2023-04-21T09:29:11.389Z,63874.23
2023-04-21T09:30:20.157Z,63868.84
2023-04-21T09:31:25.300Z,63884.12
2023-04-21T09:32:27.609Z,63871.59
2023-04-21T09:33:45.637Z,63898.86
2023-04-21T09:34:41.806Z,63880.26
2023-04-21T09:35:43.738Z,63864.77
2023-04-21T09:36:49.366Z,63871.91
2023-04-21T09:37:51.393Z,63860.48
2023-04-21T09:39:15.448Z,63853.22
2023-04-21T09:41:07.454Z,63812.79
2023-04-21T09:42:10.592Z,63816.41
2023-04-21T09:43:12.466Z,63804.32
2023-04-21T09:44:15.214Z,63825.20
2023-04-21T09:45:36.666Z,63819.71
2023-04-21T09:46:23.191Z,63819.37
2023-04-21T09:47:28.581Z,63801.79
2023-04-21T09:48:33.328Z,63809.81
2023-04-21T09:49:37.982Z,63808.71
2023-04-21T09:51:20.857Z,63805.41
2023-04-21T09:54:13.032Z,63801.79
2023-04-21T09:55:12.177Z,63809.25
2023-04-21T09:56:17.884Z,63812.23
2023-04-21T09:57:25.356Z,63802.11
2023-04-21T09:58:30.334Z,63779.05
2023-04-21T09:59:37.558Z,63770.24
2023-04-21T10:00:40.320Z,63754.55
2023-04-21T10:01:45.186Z,63737.30
2023-04-21T10:02:51.140Z,63740.70
2023-04-21T10:03:54.500Z,63729.82
2023-04-21T10:04:57.579Z,63739.48
2023-04-21T10:05:59.930Z,63743.55
2023-04-21T10:07:04.867Z,63750.46
2023-04-21T10:08:09.169Z,63739.71
2023-04-21T10:09:12.394Z,63743.99
2023-04-21T10:10:28.092Z,63719.94
2023-04-21T10:11:30.319Z,63743.20
2023-04-21T10:12:34.142Z,63735.75
2023-04-21T10:13:37.535Z,63728.61
2023-04-21T10:14:39.604Z,63735.75
2023-04-21T10:15:42.029Z,63753.76
2023-04-21T10:16:49.531Z,63749.60
2023-04-21T10:17:51.589Z,63761.02
2023-04-21T10:18:53.714Z,63756.61
2023-04-21T10:19:57.134Z,63773.29
2023-04-21T10:21:10.681Z,63781.24
2023-04-21T10:22:13.294Z,63771.89
2023-04-21T10:23:30.835Z,63748.49
2023-04-21T10:24:41.943Z,63751.57
2023-04-21T10:25:47.716Z,63757.05
2023-04-21T10:26:54.627Z,63756.51
2023-04-21T10:27:55.969Z,63761.14
2023-04-21T10:29:00.125Z,63770.78
2023-04-21T10:30:20.426Z,63775.31
2023-04-21T10:31:25.697Z,63794.43
2023-04-21T10:32:41.712Z,63803.22
2023-04-21T10:34:09.012Z,63810.90
2023-04-21T10:35:14.005Z,63813.78
2023-04-21T10:36:19.970Z,63811.57
2023-04-21T10:37:22.005Z,63819.71
2023-04-21T10:38:40.199Z,63821.36
2023-04-21T10:39:44.710Z,63821.23
2023-04-21T10:40:47.811Z,63828.05
2023-04-21T10:41:50.214Z,63820.25
2023-04-21T10:42:52.072Z,63831.36
2023-04-21T10:44:02.929Z,63837.29
2023-04-21T10:45:08.404Z,63835.10
2023-04-21T10:46:35.009Z,63853.34
2023-04-21T10:47:43.341Z,63830.69
2023-04-21T10:48:53.488Z,63831.36
2023-04-21T10:49:57.089Z,63838.37
2023-04-21T10:51:01.825Z,63830.15
2023-04-21T10:52:08.180Z,63835.20
2023-04-21T10:53:15.491Z,63833.55
2023-04-21T10:54:19.512Z,63820.35
2023-04-21T10:55:24.153Z,63833.55
2023-04-21T10:56:26.143Z,63808.27
2023-04-21T10:57:33.737Z,63828.50
2023-04-21T10:58:37.073Z,63825.86
2023-04-21T10:59:39.983Z,63844.11
2023-04-21T11:00:42.912Z,63850.71
2023-04-21T11:01:45.369Z,63829.16
2023-04-21T11:03:05.972Z,63848.27
2023-04-21T11:04:13.851Z,63854.87
2023-04-21T11:05:16.366Z,63869.40
2023-04-21T11:06:18.527Z,63875.34
2023-04-21T11:07:24.969Z,63868.17
2023-04-21T11:08:27.052Z,63878.19
2023-04-21T11:09:29.662Z,63882.58
2023-04-21T11:11:58.262Z,63897.43
2023-04-21T11:13:00.296Z,63917.11
2023-04-21T11:14:03.075Z,63937.49
2023-04-21T11:15:09.276Z,63945.74
2023-04-21T11:16:11.877Z,63944.51
2023-04-21T11:17:16.390Z,63915.58
2023-04-21T11:18:18.402Z,63928.79
2023-04-21T11:19:22.034Z,63936.38
2023-04-21T11:20:24.554Z,63944.09
2023-04-21T11:21:28.960Z,63963.88
2023-04-21T11:22:30.954Z,63962.68
2023-04-21T11:23:32.936Z,63936.50
2023-04-21T11:24:34.813Z,63958.48
2023-04-21T11:25:36.901Z,63955.08
2023-04-21T11:26:39.166Z,63970.37
2023-04-21T11:27:41.043Z,63957.84
2023-04-21T11:28:42.887Z,63965.75
2023-04-21T11:29:45.984Z,63972.02
2023-04-21T11:30:48.282Z,63967.18
2023-04-21T11:31:50.857Z,63957.40
2023-04-21T11:32:56.101Z,63960.04
2023-04-21T11:33:59.743Z,63939.80
2023-04-21T11:35:01.866Z,63952.32
2023-04-21T11:36:07.369Z,63943.64
2023-04-21T11:37:12.033Z,63954.64
2023-04-21T11:38:14.023Z,63969.94
2023-04-21T11:39:18.175Z,63950.57
2023-04-21T11:40:21.142Z,63942.00
2023-04-21T11:41:23.741Z,63931.65
2023-04-21T11:42:27.045Z,63950.57
2023-04-21T11:43:29.063Z,63950.79
2023-04-21T11:44:41.962Z,63956.61
2023-04-21T11:45:47.751Z,63964.87
2023-04-21T11:46:50.300Z,63979.95
2023-04-21T11:47:56.109Z,63947.05
2023-04-21T11:49:06.886Z,63947.05
2023-04-21T11:50:10.736Z,63971.48
2023-04-21T11:51:19.291Z,63980.27
2023-04-21T11:52:32.352Z,63956.41
2023-04-21T11:53:34.494Z,63971.03
2023-04-21T11:54:38.089Z,63978.18
2023-04-21T11:56:56.224Z,63990.40
2023-04-21T11:57:58.538Z,63967.30
2023-04-21T11:59:00.644Z,63975.00
2023-04-21T12:00:05.516Z,63981.60
2023-04-21T12:01:08.802Z,63976.20
2023-04-21T12:02:14.672Z,63983.04
2023-04-21T12:03:19.323Z,63993.49
2023-04-21T12:04:23.821Z,63953.55
2023-04-21T12:05:34.717Z,63967.30
2023-04-21T12:06:37.085Z,63976.11
2023-04-21T12:07:42.419Z,63966.07
2023-04-21T12:08:44.359Z,63964.00
2023-04-21T12:09:50.312Z,63964.87
2023-04-21T12:10:52.325Z,63960.70
2023-04-21T12:11:56.186Z,63975.89
2023-04-21T12:12:58.194Z,63967.06
2023-04-21T12:14:01.257Z,63957.94
2023-04-21T12:15:04.593Z,63967.06
2023-04-21T12:16:07.096Z,63967.18
2023-04-21T12:17:09.187Z,63970.61
2023-04-21T12:18:15.586Z,63964.87
2023-04-21T12:19:41.182Z,63966.64
2023-04-21T12:20:52.035Z,63970.70
2023-04-21T12:21:54.967Z,63967.30
2023-04-21T12:22:57.026Z,63981.16
2023-04-21T12:23:59.006Z,63984.36
2023-04-21T12:25:01.075Z,63993.16
2023-04-21T12:26:04.557Z,63993.26
2023-04-21T12:27:08.694Z,64009.44
2023-04-21T12:28:10.900Z,64013.53
2023-04-21T12:29:13.007Z,64015.16
2023-04-21T12:30:15.179Z,64026.50
2023-04-21T12:31:19.893Z,63982.27